createdAt,value
2018-12-07T00:01:07.369Z,10.80
2018-12-07T00:02:17.614Z,10.80
2018-12-07T00:03:26.928Z,10.80
2018-12-07T00:04:36.118Z,10.70
2018-12-07T00:05:45.379Z,10.70
2018-12-07T00:06:54.355Z,10.80
2018-12-07T00:08:03.780Z,10.80
2018-12-07T00:09:13.006Z,10.80
2018-12-07T00:10:22.572Z,10.80
2018-12-07T00:11:31.719Z,10.80
2018-12-07T00:12:41.287Z,10.80
2018-12-07T00:13:50.400Z,10.80
2018-12-07T00:15:00.080Z,10.80
2018-12-07T00:16:09.398Z,10.80
2018-12-07T00:17:18.992Z,10.70
2018-12-07T00:18:29.079Z,10.70
2018-12-07T00:19:38.569Z,10.70
2018-12-07T00:20:48.002Z,10.80
2018-12-07T00:21:57.308Z,10.80
2018-12-07T00:23:07.488Z,10.80
2018-12-07T00:24:16.664Z,10.80
2018-12-07T00:25:25.834Z,10.80
2018-12-07T00:26:35.101Z,10.80
2018-12-07T00:27:44.898Z,10.80
2018-12-07T00:28:54.288Z,10.70
2018-12-07T00:30:04.646Z,10.80
2018-12-07T00:31:13.694Z,10.80
2018-12-07T00:32:23.117Z,10.80
2018-12-07T00:33:31.966Z,10.80
2018-12-07T00:34:41.490Z,10.90
2018-12-07T00:35:51.481Z,10.80
2018-12-07T00:37:00.615Z,10.80
2018-12-07T00:38:09.947Z,10.80
2018-12-07T00:39:19.340Z,10.80
2018-12-07T00:40:28.614Z,10.70
2018-12-07T00:41:38.014Z,10.70
2018-12-07T00:42:47.274Z,10.70
2018-12-07T00:43:56.556Z,10.80
2018-12-07T00:45:05.957Z,10.80
2018-12-07T00:46:15.335Z,10.80
2018-12-07T00:47:24.300Z,10.80
2018-12-07T00:48:33.595Z,10.80
2018-12-07T00:49:42.847Z,10.80
2018-12-07T00:50:51.995Z,10.90
2018-12-07T00:52:01.035Z,10.90
2018-12-07T00:53:10.465Z,10.80
2018-12-07T00:54:20.000Z,10.80
2018-12-07T00:55:39.198Z,10.90
2018-12-07T00:56:49.361Z,10.80
2018-12-07T00:57:58.820Z,10.80
2018-12-07T00:59:09.153Z,10.90
2018-12-07T01:00:18.390Z,10.90
2018-12-07T01:01:27.800Z,10.80
2018-12-07T01:02:38.070Z,10.80
2018-12-07T01:03:47.519Z,10.80
2018-12-07T01:04:56.742Z,10.80
2018-12-07T01:06:06.572Z,10.80
2018-12-07T01:07:16.208Z,10.80
2018-12-07T01:08:25.732Z,10.90
2018-12-07T01:09:34.927Z,10.80
2018-12-07T01:10:44.277Z,10.90
2018-12-07T01:11:53.638Z,10.90
2018-12-07T01:13:03.456Z,10.90
2018-12-07T01:14:12.660Z,10.90
2018-12-07T01:15:22.447Z,11.00
2018-12-07T01:16:31.949Z,11.00
2018-12-07T01:17:41.316Z,11.00
2018-12-07T01:18:50.458Z,11.00
2018-12-07T01:19:59.508Z,10.90
2018-12-07T01:21:09.044Z,10.90
2018-12-07T01:22:18.335Z,11.00
2018-12-07T01:23:27.962Z,11.00
2018-12-07T01:24:37.425Z,11.10
2018-12-07T01:25:46.596Z,11.00
2018-12-07T01:26:55.854Z,11.10
2018-12-07T01:28:05.105Z,11.10
2018-12-07T01:29:14.026Z,11.10
2018-12-07T01:30:23.670Z,11.00
2018-12-07T01:31:33.984Z,11.00
2018-12-07T01:32:43.356Z,11.00
2018-12-07T01:33:52.507Z,11.00
2018-12-07T01:35:02.364Z,11.00
2018-12-07T01:36:11.387Z,11.00
2018-12-07T01:37:21.514Z,10.90
2018-12-07T01:38:30.935Z,11.00
2018-12-07T01:39:40.385Z,11.00
2018-12-07T01:40:49.567Z,10.90
2018-12-07T01:41:58.721Z,10.90
2018-12-07T01:43:08.039Z,10.90
2018-12-07T01:44:17.352Z,10.90
2018-12-07T01:45:26.872Z,11.00
2018-12-07T01:46:36.161Z,11.00
2018-12-07T01:47:46.491Z,10.90
2018-12-07T01:48:56.401Z,10.90
2018-12-07T01:50:05.752Z,10.90
2018-12-07T01:51:15.821Z,11.00
2018-12-07T01:52:25.343Z,10.90
2018-12-07T01:53:34.592Z,10.90
2018-12-07T01:54:44.192Z,10.90
2018-12-07T01:55:53.087Z,10.90
2018-12-07T01:57:02.328Z,10.90
2018-12-07T01:58:11.903Z,10.90
2018-12-07T01:59:21.229Z,10.90
2018-12-07T02:00:30.297Z,11.00
2018-12-07T02:01:39.388Z,11.00
2018-12-07T02:02:48.518Z,11.00
2018-12-07T02:03:57.816Z,11.00
2018-12-07T02:05:07.127Z,10.90
2018-12-07T02:06:16.437Z,11.00
2018-12-07T02:07:31.606Z,11.00
2018-12-07T02:08:40.799Z,11.00
2018-12-07T02:09:50.145Z,11.00
2018-12-07T02:10:59.586Z,11.00
2018-12-07T02:13:34.765Z,11.00
2018-12-07T02:14:43.904Z,11.00
2018-12-07T02:15:53.325Z,11.00
2018-12-07T02:17:02.849Z,11.00
2018-12-07T02:18:12.404Z,11.00
2018-12-07T02:19:21.502Z,11.00
2018-12-07T02:20:30.655Z,11.10
2018-12-07T02:21:40.084Z,11.00
2018-12-07T02:22:49.564Z,11.10
2018-12-07T02:23:59.073Z,11.10
2018-12-07T02:25:08.312Z,11.10
2018-12-07T02:26:17.717Z,11.00
2018-12-07T02:27:28.042Z,11.00
2018-12-07T02:28:37.412Z,11.00
2018-12-07T02:29:46.762Z,11.10
2018-12-07T02:30:56.112Z,11.00
2018-12-07T02:32:05.525Z,11.00
2018-12-07T02:33:14.712Z,11.00
2018-12-07T02:34:23.927Z,11.10
2018-12-07T02:35:33.034Z,11.00
2018-12-07T02:36:42.540Z,11.10
2018-12-07T02:37:51.972Z,11.10
2018-12-07T02:39:01.634Z,11.00
2018-12-07T02:40:11.479Z,11.00
2018-12-07T02:41:20.885Z,11.00
2018-12-07T02:42:30.240Z,11.10
2018-12-07T02:43:39.064Z,11.00
2018-12-07T02:44:48.381Z,11.00
2018-12-07T02:45:58.399Z,11.00
2018-12-07T02:47:08.348Z,11.00
2018-12-07T02:48:17.610Z,11.00
2018-12-07T02:49:26.901Z,11.00
2018-12-07T02:50:36.348Z,11.10
2018-12-07T02:51:45.241Z,11.10
2018-12-07T02:52:54.667Z,11.10
2018-12-07T02:54:04.087Z,11.10
2018-12-07T02:55:13.543Z,11.10
2018-12-07T02:56:22.882Z,11.10
2018-12-07T02:57:32.305Z,11.10
2018-12-07T02:58:41.669Z,11.20
2018-12-07T02:59:51.134Z,11.10
2018-12-07T03:01:00.124Z,11.10
2018-12-07T03:02:09.626Z,11.00
2018-12-07T03:03:18.817Z,11.00
2018-12-07T03:04:28.073Z,11.00
2018-12-07T03:05:37.464Z,11.10
2018-12-07T03:06:47.848Z,11.10
2018-12-07T03:07:56.975Z,11.20
2018-12-07T03:09:06.806Z,11.20
2018-12-07T03:10:16.116Z,11.10
2018-12-07T03:11:25.349Z,11.20
2018-12-07T03:12:35.059Z,11.20
2018-12-07T03:13:44.268Z,11.20
2018-12-07T03:14:53.433Z,11.20
2018-12-07T03:16:02.865Z,11.20
2018-12-07T03:17:12.369Z,11.20
2018-12-07T03:18:36.739Z,11.30
2018-12-07T03:19:45.851Z,11.20
2018-12-07T03:20:54.982Z,11.10
2018-12-07T03:22:03.840Z,11.20
2018-12-07T03:23:13.123Z,11.20
2018-12-07T03:24:22.181Z,11.20
2018-12-07T03:25:31.432Z,11.10
2018-12-07T03:26:40.717Z,11.20
2018-12-07T03:27:49.852Z,11.20
2018-12-07T03:28:59.174Z,11.10
2018-12-07T03:30:08.899Z,11.20
2018-12-07T03:31:18.275Z,11.20
2018-12-07T03:32:28.607Z,11.20
2018-12-07T03:33:37.892Z,11.20
2018-12-07T03:34:47.443Z,11.20
2018-12-07T03:35:57.329Z,11.20
2018-12-07T03:37:06.680Z,11.20
2018-12-07T03:38:16.029Z,11.20
2018-12-07T03:39:25.157Z,11.10
2018-12-07T03:40:34.516Z,11.20
2018-12-07T03:41:43.826Z,11.20
2018-12-07T03:42:52.815Z,11.20
2018-12-07T03:44:02.357Z,11.20
2018-12-07T03:45:11.235Z,11.20
2018-12-07T03:46:20.361Z,11.30
2018-12-07T03:47:29.913Z,11.30
2018-12-07T03:48:39.246Z,11.30
2018-12-07T03:49:48.420Z,11.30
2018-12-07T03:50:57.969Z,11.30
2018-12-07T03:52:07.170Z,11.30
2018-12-07T03:53:16.569Z,11.20
2018-12-07T03:54:25.908Z,11.30
2018-12-07T03:55:35.219Z,11.30
2018-12-07T03:56:44.415Z,11.30
2018-12-07T03:57:53.958Z,11.30
2018-12-07T03:59:03.089Z,11.30
2018-12-07T04:00:12.609Z,11.30
2018-12-07T04:01:21.730Z,11.20
2018-12-07T04:02:30.941Z,11.30
2018-12-07T04:03:41.738Z,11.30
2018-12-07T04:04:51.289Z,11.30
2018-12-07T04:06:00.438Z,11.30
2018-12-07T04:07:09.393Z,11.30
2018-12-07T04:08:18.409Z,11.30
2018-12-07T04:09:27.816Z,11.30
2018-12-07T04:10:37.298Z,11.30
2018-12-07T04:11:47.526Z,11.30
2018-12-07T04:12:56.505Z,11.30
2018-12-07T04:14:05.737Z,11.20
2018-12-07T04:15:14.937Z,11.20
2018-12-07T04:16:24.175Z,11.20
2018-12-07T04:17:33.393Z,11.20
2018-12-07T04:18:42.842Z,11.20
2018-12-07T04:19:52.421Z,11.20
2018-12-07T04:21:01.866Z,11.20
2018-12-07T04:22:11.200Z,11.20
2018-12-07T04:23:20.683Z,11.30
2018-12-07T04:24:29.821Z,11.30
2018-12-07T04:25:39.227Z,11.20
2018-12-07T04:26:49.657Z,11.20
2018-12-07T04:27:59.084Z,11.20
2018-12-07T04:29:09.105Z,11.20
2018-12-07T04:30:23.484Z,11.20
2018-12-07T04:31:32.816Z,11.20
2018-12-07T04:32:43.039Z,11.30
2018-12-07T04:33:52.253Z,11.20
2018-12-07T04:35:01.669Z,11.20
2018-12-07T04:36:10.824Z,11.20
2018-12-07T04:37:20.344Z,11.30
2018-12-07T04:38:29.567Z,11.30
2018-12-07T04:39:39.636Z,11.30
2018-12-07T04:40:48.994Z,11.30
2018-12-07T04:41:58.993Z,11.30
2018-12-07T04:43:08.188Z,11.30
2018-12-07T04:44:17.563Z,11.30
2018-12-07T04:45:26.985Z,11.30
2018-12-07T04:46:36.177Z,11.30
2018-12-07T04:47:45.353Z,11.30
2018-12-07T04:48:54.732Z,11.40
2018-12-07T04:50:05.062Z,11.30
2018-12-07T04:51:14.373Z,11.30
2018-12-07T04:52:23.483Z,11.30
2018-12-07T04:53:32.712Z,11.30
2018-12-07T04:54:41.965Z,11.30
2018-12-07T04:55:51.601Z,11.30
2018-12-07T04:57:00.725Z,11.30
2018-12-07T04:58:10.049Z,11.30
2018-12-07T04:59:20.285Z,11.30
2018-12-07T05:00:29.482Z,11.30
2018-12-07T05:01:38.670Z,11.30
2018-12-07T05:02:47.722Z,11.30
2018-12-07T05:03:57.255Z,11.30
2018-12-07T05:05:06.671Z,11.40
2018-12-07T05:06:15.980Z,11.40
2018-12-07T05:07:25.081Z,11.40
2018-12-07T05:08:34.692Z,11.40
2018-12-07T05:09:44.224Z,11.40
2018-12-07T05:10:53.433Z,11.40
2018-12-07T05:12:03.120Z,11.40
2018-12-07T05:13:12.481Z,11.40
2018-12-07T05:14:23.570Z,11.40
2018-12-07T05:15:32.881Z,11.40
2018-12-07T05:16:42.118Z,11.40
2018-12-07T05:17:51.874Z,11.40
2018-12-07T05:19:01.203Z,11.40
2018-12-07T05:20:11.901Z,11.30
2018-12-07T05:21:21.165Z,11.30
2018-12-07T05:22:31.226Z,11.30
2018-12-07T05:23:41.265Z,11.40
2018-12-07T05:24:50.710Z,11.40
2018-12-07T05:25:59.865Z,11.40
2018-12-07T05:27:09.183Z,11.40
2018-12-07T05:28:18.764Z,11.40
2018-12-07T05:29:28.038Z,11.40
2018-12-07T05:30:37.338Z,11.40
2018-12-07T05:31:46.237Z,11.30
2018-12-07T05:32:55.424Z,11.40
2018-12-07T05:34:04.874Z,11.40
2018-12-07T05:35:13.877Z,11.40
2018-12-07T05:36:23.376Z,11.40
2018-12-07T05:37:32.593Z,11.40
2018-12-07T05:38:43.854Z,11.40
2018-12-07T05:39:53.091Z,11.40
2018-12-07T05:41:02.326Z,11.40
2018-12-07T05:42:11.274Z,11.40
2018-12-07T05:43:20.521Z,11.30
2018-12-07T05:44:29.746Z,11.30
2018-12-07T05:45:38.936Z,11.30
2018-12-07T05:46:48.259Z,11.30
2018-12-07T05:47:57.486Z,11.30
2018-12-07T05:49:06.617Z,11.30
2018-12-07T05:50:16.015Z,11.30
2018-12-07T05:51:25.385Z,11.30
2018-12-07T05:52:34.396Z,11.30
2018-12-07T05:53:43.811Z,11.30
2018-12-07T05:54:53.226Z,11.30
2018-12-07T05:56:02.737Z,11.30
2018-12-07T05:57:12.220Z,11.30
2018-12-07T05:58:21.595Z,11.30
2018-12-07T05:59:30.820Z,11.30
2018-12-07T06:00:40.006Z,11.30
2018-12-07T06:01:49.116Z,11.30
2018-12-07T06:02:58.313Z,11.30
2018-12-07T06:04:07.387Z,11.30
2018-12-07T06:05:17.106Z,11.30
2018-12-07T06:06:26.467Z,11.30
2018-12-07T06:07:35.895Z,11.30
2018-12-07T06:08:48.795Z,11.30
2018-12-07T06:09:59.197Z,11.30
2018-12-07T06:11:08.646Z,11.30
2018-12-07T06:12:18.692Z,11.30
2018-12-07T06:13:27.949Z,11.30
2018-12-07T06:14:37.556Z,11.30
2018-12-07T06:15:47.439Z,11.30
2018-12-07T06:16:57.248Z,11.30
2018-12-07T06:18:06.260Z,11.30
2018-12-07T06:19:16.696Z,11.30
2018-12-07T06:20:26.803Z,11.40
2018-12-07T06:21:36.306Z,11.30
2018-12-07T06:22:46.637Z,11.30
2018-12-07T06:23:55.994Z,11.30
2018-12-07T06:25:05.369Z,11.30
2018-12-07T06:26:16.655Z,11.30
2018-12-07T06:27:28.690Z,11.30
2018-12-07T06:28:38.178Z,11.30
2018-12-07T06:29:48.691Z,11.30
2018-12-07T06:30:58.014Z,11.30
2018-12-07T06:32:07.363Z,11.40
2018-12-07T06:33:16.560Z,11.40
2018-12-07T06:34:25.828Z,11.40
2018-12-07T06:35:35.062Z,11.40
2018-12-07T06:36:44.431Z,11.50
2018-12-07T06:37:53.518Z,11.40
2018-12-07T06:39:04.719Z,11.40
2018-12-07T06:40:14.007Z,11.40
2018-12-07T06:41:23.150Z,11.50
2018-12-07T06:42:32.700Z,11.40
2018-12-07T06:43:42.032Z,11.50
2018-12-07T06:44:51.919Z,11.40
2018-12-07T06:46:01.294Z,11.40
2018-12-07T06:47:10.660Z,11.40
2018-12-07T06:48:20.078Z,11.40
2018-12-07T06:49:29.371Z,11.40
2018-12-07T06:50:38.909Z,11.40
2018-12-07T06:51:47.939Z,11.40
2018-12-07T06:52:57.431Z,11.40
2018-12-07T06:54:06.570Z,11.40
2018-12-07T06:55:15.961Z,11.40
2018-12-07T06:56:25.454Z,11.50
2018-12-07T06:57:35.039Z,11.50
2018-12-07T06:58:44.431Z,11.50
2018-12-07T06:59:53.590Z,11.50
2018-12-07T07:01:02.689Z,11.40
2018-12-07T07:02:11.992Z,11.50
2018-12-07T07:03:21.202Z,11.50
2018-12-07T07:04:30.383Z,11.50
2018-12-07T07:05:40.282Z,11.50
2018-12-07T07:06:49.522Z,11.40
2018-12-07T07:07:58.538Z,11.40
2018-12-07T07:09:07.793Z,11.50
2018-12-07T07:10:16.851Z,11.50
2018-12-07T07:11:26.391Z,11.50
2018-12-07T07:12:35.894Z,11.50
2018-12-07T07:13:44.871Z,11.50
2018-12-07T07:14:54.292Z,11.50
2018-12-07T07:16:03.541Z,11.50
2018-12-07T07:17:12.671Z,11.50
2018-12-07T07:18:22.096Z,11.50
2018-12-07T07:19:31.393Z,11.50
2018-12-07T07:20:40.614Z,11.50
2018-12-07T07:21:49.813Z,11.50
2018-12-07T07:23:00.361Z,11.50
2018-12-07T07:24:09.563Z,11.50
2018-12-07T07:25:18.622Z,11.60
2018-12-07T07:26:27.712Z,11.50
2018-12-07T07:27:37.293Z,11.50
2018-12-07T07:28:46.763Z,11.60
2018-12-07T07:29:56.131Z,11.50
2018-12-07T07:31:05.513Z,11.50
2018-12-07T07:32:15.056Z,11.60
2018-12-07T07:33:24.361Z,11.60
2018-12-07T07:34:33.508Z,11.60
2018-12-07T07:35:42.693Z,11.60
2018-12-07T07:36:51.773Z,11.60
2018-12-07T07:38:00.646Z,11.70
2018-12-07T07:39:09.465Z,11.60
2018-12-07T07:40:18.490Z,11.60
2018-12-07T07:41:27.604Z,11.60
2018-12-07T07:42:36.638Z,11.60
2018-12-07T07:43:45.992Z,11.60
2018-12-07T07:44:55.496Z,11.60
2018-12-07T07:46:05.233Z,11.70
2018-12-07T07:47:14.596Z,11.70
2018-12-07T07:48:24.183Z,11.80
2018-12-07T07:49:33.368Z,11.80
2018-12-07T07:50:42.647Z,11.80
2018-12-07T07:51:51.679Z,11.80
2018-12-07T07:53:00.810Z,11.80
2018-12-07T07:54:09.778Z,11.80
2018-12-07T07:55:18.769Z,11.80
2018-12-07T07:56:27.832Z,11.70
2018-12-07T07:57:37.804Z,11.70
2018-12-07T07:58:46.724Z,11.70
2018-12-07T07:59:55.832Z,11.70
2018-12-07T08:01:04.992Z,11.80
2018-12-07T08:02:14.164Z,11.80
2018-12-07T08:03:23.362Z,11.70
2018-12-07T08:04:32.565Z,11.80
2018-12-07T08:05:41.377Z,11.80
2018-12-07T08:06:50.790Z,11.90
2018-12-07T08:07:59.981Z,11.90
2018-12-07T08:09:08.979Z,12.00
2018-12-07T08:10:18.181Z,12.00
2018-12-07T08:11:27.647Z,12.00
2018-12-07T08:12:37.069Z,12.10
2018-12-07T08:13:46.319Z,12.00
2018-12-07T08:14:55.542Z,12.00
2018-12-07T08:16:04.837Z,12.00
2018-12-07T08:17:14.101Z,11.90
2018-12-07T08:18:23.334Z,11.90
2018-12-07T08:19:32.685Z,11.90
2018-12-07T08:20:42.246Z,11.90
2018-12-07T08:21:51.518Z,11.90
2018-12-07T08:23:01.476Z,11.90
2018-12-07T08:24:10.857Z,11.90
2018-12-07T08:25:19.963Z,11.90
2018-12-07T08:26:29.310Z,11.90
2018-12-07T08:27:39.191Z,11.90
2018-12-07T08:28:48.368Z,11.90
2018-12-07T08:29:57.694Z,11.90
2018-12-07T08:31:06.863Z,11.80
2018-12-07T08:32:15.812Z,11.90
2018-12-07T08:33:25.384Z,11.90
2018-12-07T08:34:34.344Z,11.90
2018-12-07T08:35:43.605Z,11.90
2018-12-07T08:36:53.215Z,11.90
2018-12-07T08:38:02.675Z,11.90
2018-12-07T08:39:12.259Z,11.90
2018-12-07T08:40:21.616Z,12.00
2018-12-07T08:41:30.896Z,12.10
2018-12-07T08:42:39.827Z,12.10
2018-12-07T08:43:49.357Z,12.10
2018-12-07T08:44:58.627Z,12.10
2018-12-07T08:46:07.917Z,12.00
2018-12-07T08:47:17.070Z,12.00
2018-12-07T08:48:26.129Z,12.00
2018-12-07T08:49:40.887Z,12.00
2018-12-07T08:50:50.120Z,12.00
2018-12-07T08:51:59.382Z,12.10
2018-12-07T08:53:08.663Z,12.10
2018-12-07T08:54:17.781Z,12.20
2018-12-07T08:55:26.923Z,12.20
2018-12-07T08:56:37.168Z,12.20
2018-12-07T08:57:46.972Z,12.20
2018-12-07T08:58:56.333Z,12.10
2018-12-07T09:00:07.005Z,12.20
2018-12-07T09:01:16.704Z,12.20
2018-12-07T09:02:25.824Z,12.20
2018-12-07T09:03:34.834Z,12.20
2018-12-07T09:04:43.894Z,12.30
2018-12-07T09:05:53.206Z,12.20
2018-12-07T09:07:02.780Z,12.30
2018-12-07T09:08:15.325Z,12.20
2018-12-07T09:09:23.946Z,12.20
2018-12-07T09:10:33.406Z,12.20
2018-12-07T09:11:42.949Z,12.20
2018-12-07T09:12:52.874Z,12.30
2018-12-07T09:14:02.579Z,12.30
2018-12-07T09:15:11.652Z,12.30
2018-12-07T09:16:20.822Z,12.30
2018-12-07T09:17:29.981Z,12.30
2018-12-07T09:18:39.516Z,12.40
2018-12-07T09:19:49.505Z,12.40
2018-12-07T09:20:58.500Z,12.40
2018-12-07T09:22:07.742Z,12.40
2018-12-07T09:23:16.971Z,12.50
2018-12-07T09:24:25.897Z,12.50
2018-12-07T09:25:34.914Z,12.50
2018-12-07T09:26:44.043Z,12.60
2018-12-07T09:27:53.184Z,12.60
2018-12-07T09:29:02.304Z,12.60
2018-12-07T09:30:11.389Z,12.70
2018-12-07T09:31:20.775Z,12.70
2018-12-07T09:32:29.965Z,12.70
2018-12-07T09:33:39.211Z,12.70
2018-12-07T09:34:48.218Z,12.70
2018-12-07T09:35:57.713Z,12.70
2018-12-07T09:37:07.449Z,12.60
2018-12-07T09:38:18.398Z,12.60
2018-12-07T09:39:28.132Z,12.60
2018-12-07T09:40:37.518Z,12.60
2018-12-07T09:41:46.649Z,12.60
2018-12-07T09:42:55.605Z,12.60
2018-12-07T09:44:05.209Z,12.60
2018-12-07T09:45:14.513Z,12.60
2018-12-07T09:46:23.856Z,12.60
2018-12-07T09:47:33.191Z,12.60
2018-12-07T09:48:42.175Z,12.60
2018-12-07T09:49:51.287Z,12.60
2018-12-07T09:51:00.403Z,12.60
2018-12-07T09:52:09.584Z,12.70
2018-12-07T09:53:18.840Z,12.60
2018-12-07T09:54:28.221Z,12.60
2018-12-07T09:55:37.219Z,12.70
2018-12-07T09:56:46.487Z,12.70
2018-12-07T09:57:55.844Z,12.70
2018-12-07T09:59:05.068Z,12.80
2018-12-07T10:00:15.551Z,12.80
2018-12-07T10:01:24.721Z,12.80
2018-12-07T10:02:33.841Z,12.80
2018-12-07T10:03:42.976Z,12.80
2018-12-07T10:04:51.873Z,12.80
2018-12-07T10:06:00.809Z,12.70
2018-12-07T10:07:10.372Z,12.70
2018-12-07T10:08:19.641Z,12.70
2018-12-07T10:09:28.820Z,12.70
2018-12-07T10:10:37.989Z,12.70
2018-12-07T10:11:47.656Z,12.60
2018-12-07T10:12:56.695Z,12.70
2018-12-07T10:14:06.092Z,12.60
2018-12-07T10:15:15.501Z,12.60
2018-12-07T10:16:24.726Z,12.70
2018-12-07T10:17:33.973Z,12.70
2018-12-07T10:18:42.800Z,12.80
2018-12-07T10:19:51.983Z,12.80
2018-12-07T10:21:00.890Z,12.80
2018-12-07T10:22:10.575Z,12.90
2018-12-07T10:23:20.285Z,12.90
2018-12-07T10:24:30.522Z,12.80
2018-12-07T10:25:40.191Z,12.80
2018-12-07T10:26:49.683Z,12.70
2018-12-07T10:28:00.850Z,12.70
2018-12-07T10:29:10.290Z,12.70
2018-12-07T10:30:19.622Z,12.80
2018-12-07T10:31:29.497Z,12.70
2018-12-07T10:32:38.572Z,12.70
2018-12-07T10:33:47.599Z,12.70
2018-12-07T10:34:58.697Z,12.70
2018-12-07T10:36:08.217Z,12.70
2018-12-07T10:37:18.426Z,12.80
2018-12-07T10:38:27.760Z,12.80
2018-12-07T10:39:36.978Z,12.70
2018-12-07T10:40:46.258Z,12.80
2018-12-07T10:41:55.969Z,12.80
2018-12-07T10:43:06.011Z,12.70
2018-12-07T10:44:16.486Z,12.80
2018-12-07T10:45:27.202Z,12.70
2018-12-07T10:46:36.213Z,12.70
2018-12-07T10:47:50.255Z,12.70
2018-12-07T10:48:57.582Z,12.70
2018-12-07T10:50:09.211Z,12.70
2018-12-07T10:51:18.659Z,12.70
2018-12-07T10:52:27.763Z,12.70
2018-12-07T10:53:36.861Z,12.80
2018-12-07T10:54:45.939Z,12.80
2018-12-07T10:55:55.213Z,12.70
2018-12-07T10:57:05.062Z,12.70
2018-12-07T10:58:14.696Z,12.70
2018-12-07T10:59:23.706Z,12.80
2018-12-07T11:00:38.865Z,12.70
2018-12-07T11:01:53.374Z,12.70
2018-12-07T11:04:47.886Z,12.70
2018-12-07T11:06:02.640Z,12.80
2018-12-07T11:07:17.597Z,12.90
2018-12-07T11:08:32.566Z,12.90
2018-12-07T11:09:45.369Z,12.90
2018-12-07T11:10:55.621Z,12.80
2018-12-07T11:12:10.204Z,12.80
2018-12-07T11:13:25.156Z,12.80
2018-12-07T11:14:39.897Z,12.90
2018-12-07T11:15:55.054Z,12.90
2018-12-07T11:17:10.426Z,13.00
2018-12-07T11:18:25.911Z,13.00
2018-12-07T11:19:41.246Z,13.00
2018-12-07T11:20:56.246Z,13.00
2018-12-07T11:22:10.942Z,13.00
2018-12-07T11:23:22.977Z,13.00
2018-12-07T11:24:37.748Z,13.10
2018-12-07T11:25:53.088Z,13.10
2018-12-07T11:27:07.811Z,13.00
2018-12-07T11:28:22.856Z,13.10
2018-12-07T11:29:37.669Z,13.00
2018-12-07T11:30:52.536Z,12.90
2018-12-07T11:32:07.325Z,13.00
2018-12-07T11:33:25.008Z,13.00
2018-12-07T11:34:35.533Z,13.00
2018-12-07T11:35:45.071Z,13.00
2018-12-07T11:36:54.044Z,13.00
2018-12-07T11:38:03.275Z,13.10
2018-12-07T11:39:12.757Z,13.20
2018-12-07T11:40:22.219Z,13.20
2018-12-07T11:41:32.671Z,13.20
2018-12-07T11:42:41.816Z,13.10
2018-12-07T11:43:51.253Z,13.10
2018-12-07T11:45:00.278Z,13.00
2018-12-07T11:46:10.296Z,13.10
2018-12-07T11:47:19.846Z,13.10
2018-12-07T11:48:29.126Z,13.10
2018-12-07T11:49:38.712Z,13.10
2018-12-07T11:50:47.897Z,13.10
2018-12-07T11:51:57.456Z,13.20
2018-12-07T11:53:07.546Z,13.20
2018-12-07T11:54:16.737Z,13.30
2018-12-07T11:55:26.077Z,13.30
2018-12-07T11:56:35.323Z,13.30
2018-12-07T11:57:44.845Z,13.40
2018-12-07T11:58:53.986Z,13.40
2018-12-07T12:00:05.107Z,13.40
2018-12-07T12:01:14.505Z,13.40
2018-12-07T12:02:26.488Z,13.40
2018-12-07T12:03:34.527Z,13.40
2018-12-07T12:04:43.974Z,13.30
2018-12-07T12:05:54.597Z,13.40
2018-12-07T12:07:04.237Z,13.40
2018-12-07T12:08:13.476Z,13.40
2018-12-07T12:09:22.664Z,13.40
2018-12-07T12:10:31.876Z,13.40
2018-12-07T12:11:41.254Z,13.40
2018-12-07T12:12:50.775Z,13.40
2018-12-07T12:14:00.109Z,13.40
2018-12-07T12:15:09.398Z,13.50
2018-12-07T12:16:18.727Z,13.60
2018-12-07T12:17:28.256Z,13.60
2018-12-07T12:18:37.825Z,13.70
2018-12-07T12:19:47.059Z,13.60
2018-12-07T12:20:56.858Z,13.60
2018-12-07T12:22:05.885Z,13.60
2018-12-07T12:23:15.865Z,13.60
2018-12-07T12:24:25.629Z,13.50
2018-12-07T12:25:34.985Z,13.50
2018-12-07T12:26:44.399Z,13.50
2018-12-07T12:27:53.388Z,13.50
2018-12-07T12:29:02.937Z,13.40
2018-12-07T12:30:13.287Z,13.50
2018-12-07T12:31:22.656Z,13.50
2018-12-07T12:32:31.914Z,13.50
2018-12-07T12:33:41.696Z,13.50
2018-12-07T12:34:50.787Z,13.50
2018-12-07T12:36:00.105Z,13.50
2018-12-07T12:37:09.875Z,13.50
2018-12-07T12:38:20.080Z,13.60
2018-12-07T12:39:29.204Z,13.50
2018-12-07T12:40:38.516Z,13.60
2018-12-07T12:41:47.827Z,13.50
2018-12-07T12:42:57.295Z,13.60
2018-12-07T12:44:06.505Z,13.60
2018-12-07T12:45:15.896Z,13.60
2018-12-07T12:46:25.484Z,13.50
2018-12-07T12:47:34.859Z,13.60
2018-12-07T12:48:44.233Z,13.60
2018-12-07T12:49:53.366Z,13.60
2018-12-07T12:51:02.716Z,13.70
2018-12-07T12:52:12.144Z,13.70
2018-12-07T12:53:21.395Z,13.80
2018-12-07T12:54:30.493Z,13.80
2018-12-07T12:55:40.033Z,13.90
2018-12-07T12:56:49.311Z,13.90
2018-12-07T12:57:58.842Z,14.00
2018-12-07T12:59:07.827Z,14.10
2018-12-07T13:00:17.059Z,14.30
2018-12-07T13:01:26.523Z,14.50
2018-12-07T13:02:36.043Z,14.70
2018-12-07T13:03:45.004Z,14.70
2018-12-07T13:04:54.204Z,14.60
2018-12-07T13:06:03.710Z,14.50
2018-12-07T13:07:13.163Z,14.60
2018-12-07T13:08:22.593Z,14.70
2018-12-07T13:09:32.004Z,14.60
2018-12-07T13:10:41.124Z,14.60
2018-12-07T13:11:50.389Z,14.60
2018-12-07T13:12:59.521Z,14.70
2018-12-07T13:14:08.913Z,14.80
2018-12-07T13:15:17.907Z,14.80
2018-12-07T13:16:27.512Z,14.80
2018-12-07T13:17:36.770Z,15.00
2018-12-07T13:18:46.205Z,15.00
2018-12-07T13:19:55.583Z,14.90
2018-12-07T13:21:05.383Z,15.00
2018-12-07T13:22:14.648Z,15.10
2018-12-07T13:23:24.824Z,15.00
2018-12-07T13:24:34.496Z,15.10
2018-12-07T13:25:44.783Z,15.40
2018-12-07T13:26:53.738Z,15.50
2018-12-07T13:28:03.431Z,15.60
2018-12-07T13:29:12.956Z,15.60
2018-12-07T13:30:22.621Z,15.70
2018-12-07T13:31:31.995Z,15.90
2018-12-07T13:32:42.019Z,16.10
2018-12-07T13:33:51.368Z,16.10
2018-12-07T13:35:00.884Z,16.20
2018-12-07T13:36:10.195Z,16.40
2018-12-07T13:37:19.441Z,16.30
2018-12-07T13:38:28.412Z,16.00
2018-12-07T13:39:39.513Z,15.80
2018-12-07T13:40:49.047Z,16.00
2018-12-07T13:41:59.261Z,16.30
2018-12-07T13:43:08.658Z,16.10
2018-12-07T13:44:18.306Z,16.50
2018-12-07T13:45:27.193Z,16.70
2018-12-07T13:46:37.676Z,17.10
2018-12-07T13:47:47.354Z,17.10
2018-12-07T13:48:56.893Z,17.10
2018-12-07T13:50:12.060Z,17.40
2018-12-07T13:51:22.024Z,17.50
2018-12-07T13:52:31.628Z,17.70
2018-12-07T13:53:41.070Z,17.90
2018-12-07T13:54:50.593Z,17.30
2018-12-07T13:55:59.866Z,16.90
2018-12-07T13:57:09.140Z,16.50
2018-12-07T13:58:18.421Z,16.20
2018-12-07T13:59:27.586Z,15.80
2018-12-07T14:00:37.135Z,15.60
2018-12-07T14:01:46.409Z,15.40
2018-12-07T14:02:56.052Z,15.30
2018-12-07T14:04:05.902Z,15.40
2018-12-07T14:05:15.362Z,15.70
2018-12-07T14:06:24.752Z,15.80
2018-12-07T14:07:34.089Z,15.80
2018-12-07T14:08:43.760Z,16.00
2018-12-07T14:09:53.237Z,16.30
2018-12-07T14:11:03.335Z,16.70
2018-12-07T14:12:12.433Z,17.50
2018-12-07T14:13:21.858Z,17.70
2018-12-07T14:14:31.210Z,17.50
2018-12-07T14:15:40.268Z,17.20
2018-12-07T14:16:49.389Z,17.30
2018-12-07T14:17:58.986Z,16.90
2018-12-07T14:19:08.024Z,16.50
2018-12-07T14:20:17.220Z,16.00
2018-12-07T14:21:26.854Z,15.50
2018-12-07T14:22:36.676Z,15.40
2018-12-07T14:23:46.095Z,15.20
2018-12-07T14:24:55.577Z,14.90
2018-12-07T14:26:04.789Z,14.70
2018-12-07T14:27:15.237Z,14.50
2018-12-07T14:28:25.697Z,14.40
2018-12-07T14:29:35.303Z,14.20
2018-12-07T14:30:44.952Z,14.00
2018-12-07T14:31:54.472Z,13.90
2018-12-07T14:33:03.874Z,13.80
2018-12-07T14:34:13.095Z,13.80
2018-12-07T14:35:22.872Z,13.80
2018-12-07T14:36:32.118Z,13.70
2018-12-07T14:37:40.999Z,13.80
2018-12-07T14:38:50.487Z,13.90
2018-12-07T14:39:59.955Z,13.70
2018-12-07T14:41:09.495Z,13.70
2018-12-07T14:42:19.079Z,13.60
2018-12-07T14:43:28.582Z,13.50
2018-12-07T14:44:37.963Z,13.60
2018-12-07T14:45:47.404Z,13.50
2018-12-07T14:46:57.034Z,13.50
2018-12-07T14:48:06.618Z,13.50
2018-12-07T14:49:16.717Z,13.50
2018-12-07T14:50:26.476Z,13.50
2018-12-07T14:51:36.452Z,13.50
2018-12-07T14:52:45.917Z,13.40
2018-12-07T14:53:55.312Z,13.30
2018-12-07T14:55:05.535Z,13.30
2018-12-07T14:56:14.964Z,13.30
2018-12-07T14:57:24.980Z,13.30
2018-12-07T14:58:34.568Z,13.30
2018-12-07T14:59:43.986Z,13.30
2018-12-07T15:00:53.523Z,13.20